Time;durP1;ratioP1;P1;durP2;ratioP2;P2;SDS_P1;SDS_P2;PMS_P1;PMS_P2;Temp;Humidity;BMP_temperature;BMP_pressure;BME280_temperature;BME280_humidity;BME280_pressure;Samples;Min_cycle;Max_cycle;Signal;HPM_P1;HPM_P2
2021/11/22 00:08:35;;;;;;;53.78;18.58;;;3.70;99.90;;;;;;20672960;28;20798;-76
2021/11/22 00:18:36;;;;;;;48.88;16.80;;;3.60;99.90;;;;;;20673338;28;20117;-76
2021/11/22 00:28:36;;;;;;;;;;;3.60;99.90;;;;;;20672469;28;20092;-76
2021/11/22 00:38:56;;;;;;;49.42;16.73;;;3.60;99.90;;;;;;20668936;28;20012;-76
2021/11/22 00:48:56;;;;;;;;;;;3.50;99.90;;;;;;20669306;28;20038;-75
2021/11/22 00:58:57;;;;;;;44.33;16.00;;;3.40;99.90;;;;;;20669701;28;19910;-76
2021/11/22 01:08:58;;;;;;;;;;;3.30;99.90;;;;;;20668892;28;20321;-76
2021/11/22 01:18:59;;;;;;;40.23;15.20;;;3.40;99.90;;;;;;20667782;28;20304;-76
2021/11/22 01:29:00;;;;;;;34.00;14.30;;;3.40;99.90;;;;;;20667425;28;20293;-76
2021/11/22 01:39:01;;;;;;;;;;;3.40;99.90;;;;;;20666585;28;20512;-76
2021/11/22 01:49:03;;;;;;;39.13;12.93;;;3.50;99.90;;;;;;20665223;28;20376;-75
2021/11/22 01:59:05;;;;;;;35.67;12.68;;;3.40;99.90;;;;;;20664747;28;20155;-76
2021/11/22 02:09:07;;;;;;;35.30;13.70;;;3.40;99.90;;;;;;20664090;28;20444;-76
2021/11/22 02:19:08;;;;;;;36.58;13.63;;;3.50;99.90;;;;;;20663992;28;20041;-76
2021/11/22 02:29:08;;;;;;;;;;;3.50;99.90;;;;;;20662916;28;20030;-76
2021/11/22 02:39:09;;;;;;;34.67;13.13;;;3.40;99.90;;;;;;20662310;28;19963;-75
2021/11/22 02:49:10;;;;;;;;;;;3.40;99.90;;;;;;20662098;28;20092;-76
2021/11/22 02:59:11;;;;;;;34.97;11.77;;;3.50;99.90;;;;;;20672747;28;19909;-76
2021/11/22 03:09:12;;;;;;;31.77;12.15;;;3.50;99.90;;;;;;20677884;28;20751;-76
2021/11/22 03:19:13;;;;;;;32.58;12.93;;;3.50;99.90;;;;;;20676901;28;20030;-76
2021/11/22 03:29:14;;;;;;;;;;;3.60;99.90;;;;;;20676549;28;20512;-76
2021/11/22 03:39:20;;;;;;;34.67;12.60;;;3.60;99.90;;;;;;20675501;28;19972;-75
2021/11/22 03:49:22;;;;;;;28.02;10.80;;;3.60;99.90;;;;;;20621012;28;20290;-75
2021/11/22 03:59:23;;;;;;;35.40;13.55;;;3.60;99.90;;;;;;20619570;28;20524;-75
2021/11/22 04:09:24;;;;;;;;;;;3.60;99.90;;;;;;20654152;28;20034;-76
2021/11/22 04:19:24;;;;;;;38.73;12.33;;;3.50;99.90;;;;;;20671767;28;19914;-75
2021/11/22 04:29:25;;;;;;;;;;;3.50;99.90;;;;;;20672044;28;20281;-75
2021/11/22 04:39:26;;;;;;;40.47;14.27;;;3.30;99.90;;;;;;20671707;28;19914;-75
2021/11/22 04:49:27;;;;;;;;;;;3.40;99.90;;;;;;20670670;28;20364;-76
2021/11/22 04:59:28;;;;;;;33.80;11.55;;;3.40;99.90;;;;;;20669477;28;20044;-76
2021/11/22 05:09:30;;;;;;;40.38;13.75;;;3.50;99.90;;;;;;20667838;28;20177;-76
2021/11/22 05:19:32;;;;;;;33.92;12.82;;;3.70;99.90;;;;;;20667944;28;20030;-76
2021/11/22 05:29:33;;;;;;;29.38;11.40;;;3.70;99.90;;;;;;20667193;28;20122;-76
2021/11/22 05:39:33;;;;;;;;;;;3.70;99.90;;;;;;20668333;28;20062;-79
2021/11/22 05:49:36;;;;;;;27.17;10.03;;;3.70;99.90;;;;;;20682733;28;20435;-78
2021/11/22 05:59:36;;;;;;;23.05;9.73;;;3.60;99.90;;;;;;20680527;28;20045;-78
2021/11/22 06:09:37;;;;;;;;;;;3.70;99.90;;;;;;20671546;28;20030;-77
2021/11/22 06:19:38;;;;;;;19.63;8.17;;;3.60;99.90;;;;;;20651032;28;19971;-77
2021/11/22 06:29:39;;;;;;;;;;;3.50;99.90;;;;;;20598840;28;20596;-78
2021/11/22 06:39:39;;;;;;;33.25;16.95;;;3.50;99.90;;;;;;20590117;28;19914;-78
2021/11/22 06:49:40;;;;;;;;;;;3.40;99.90;;;;;;20590294;28;20077;-78
2021/11/22 06:59:42;;;;;;;17.63;7.80;;;3.40;99.90;;;;;;20589681;28;20369;-78
2021/11/22 07:09:45;;;;;;;20.08;8.82;;;3.40;99.90;;;;;;20605390;28;20296;-78
2021/11/22 07:19:46;;;;;;;22.95;8.70;;;3.40;99.90;;;;;;20645268;28;20081;-77
2021/11/22 07:29:47;;;;;;;26.23;9.02;;;3.40;99.90;;;;;;20665009;28;20043;-78
2021/11/22 07:39:48;;;;;;;;;;;3.50;99.90;;;;;;20643550;28;20468;-77
2021/11/22 07:49:49;;;;;;;28.55;8.63;;;3.50;99.90;;;;;;20606776;28;20013;-77
2021/11/22 07:59:51;;;;;;;;;;;3.70;99.90;;;;;;20594171;28;20030;-77
2021/11/22 08:10:00;;;;;;;16.50;8.07;;;3.80;99.90;;;;;;20593767;28;19918;-77
2021/11/22 08:20:01;;;;;;;18.35;8.15;;;3.90;99.90;;;;;;20599732;28;20513;-78
2021/11/22 08:30:04;;;;;;;;;;;4.00;99.90;;;;;;20608509;28;20057;-77
2021/11/22 08:40:09;;;;;;;16.65;8.18;;;4.20;99.90;;;;;;20605092;28;19910;-78
2021/11/22 08:50:13;;;;;;;13.57;6.82;;;4.40;99.90;;;;;;20585825;28;20041;-77
2021/11/22 09:00:25;;;;;;;14.40;6.75;;;4.50;99.90;;;;;;20603530;28;20034;-78
2021/11/22 09:10:26;;;;;;;11.02;6.20;;;4.50;99.90;;;;;;20604666;28;20057;-77
2021/11/22 09:20:28;;;;;;;12.35;5.80;;;4.70;99.90;;;;;;20601543;28;20061;-78
2021/11/22 09:30:29;;;;;;;8.77;5.20;;;4.70;99.90;;;;;;20603555;28;20418;-77
2021/11/22 09:40:30;;;;;;;8.85;4.82;;;4.70;99.90;;;;;;20600915;28;20050;-78
2021/11/22 09:50:32;;;;;;;10.50;5.10;;;4.70;99.90;;;;;;20582898;28;20133;-78
2021/11/22 10:00:46;;;;;;;13.10;5.85;;;4.70;99.90;;;;;;20592136;28;20035;-77
2021/11/22 10:10:53;;;;;;;7.57;4.38;;;4.70;99.90;;;;;;20583704;28;20089;-77
2021/11/22 10:20:54;;;;;;;9.15;5.43;;;4.70;99.90;;;;;;20590051;28;20042;-78
2021/11/22 10:31:09;;;;;;;8.35;4.88;;;4.90;99.90;;;;;;20584874;28;20037;-77
2021/11/22 10:41:14;;;;;;;8.70;4.75;;;5.00;99.90;;;;;;20585229;28;20037;-78
2021/11/22 10:51:20;;;;;;;6.13;3.72;;;5.10;99.90;;;;;;20591786;28;20026;-78
2021/11/22 11:01:46;;;;;;;5.30;3.50;;;5.30;99.90;;;;;;20577774;28;20046;-79
2021/11/22 11:11:53;;;;;;;5.72;3.88;;;5.50;99.90;;;;;;20624132;23;20742;-79
2021/11/22 11:21:54;;;;;;;5.05;2.88;;;5.60;99.90;;;;;;20857381;28;20030;-80
2021/11/22 11:31:55;;;;;;;4.30;2.87;;;5.70;99.90;;;;;;20802669;28;20033;-77
2021/11/22 11:42:30;;;;;;;4.55;2.75;;;5.80;99.90;;;;;;20792733;28;20118;-79
2021/11/22 11:52:31;;;;;;;3.35;2.20;;;5.90;99.90;;;;;;20758903;28;20031;-81
2021/11/22 12:02:33;;;;;;;3.42;2.28;;;6.10;99.90;;;;;;20708089;28;20038;-80
2021/11/22 12:12:49;;;;;;;2.55;1.90;;;6.00;99.90;;;;;;20709376;28;20093;-79
2021/11/22 12:22:53;;;;;;;4.97;2.47;;;6.00;99.90;;;;;;20708374;28;20512;-80
2021/11/22 12:33:13;;;;;;;4.32;3.00;;;5.90;99.90;;;;;;20698396;28;20098;-80
2021/11/22 12:43:15;;;;;;;4.68;2.80;;;5.90;99.90;;;;;;20682406;28;20035;-79
2021/11/22 12:53:16;;;;;;;4.88;2.53;;;5.90;99.90;;;;;;20695906;28;20031;-78
2021/11/22 13:03:19;;;;;;;3.97;2.47;;;5.90;99.90;;;;;;20772062;28;20022;-79
2021/11/22 13:23:42;;;;;;;8.68;3.92;;;6.00;99.90;;;;;;20767810;28;20034;-79
2021/11/22 13:33:45;;;;;;;4.80;3.25;;;5.90;99.90;;;;;;20769365;28;20064;-78
2021/11/22 13:43:52;;;;;;;8.68;4.07;;;6.00;99.90;;;;;;20765882;28;20034;-79
2021/11/22 13:53:55;;;;;;;4.35;2.40;;;6.00;99.90;;;;;;20727028;28;20038;-78
2021/11/22 14:04:01;;;;;;;4.70;3.17;;;5.90;99.90;;;;;;20725389;28;20038;-81
2021/11/22 14:14:16;;;;;;;4.63;2.60;;;6.00;99.90;;;;;;20728448;28;20042;-80
2021/11/22 14:24:22;;;;;;;3.20;2.33;;;6.00;99.90;;;;;;20731492;28;20392;-80
2021/11/22 14:34:25;;;;;;;2.88;1.83;;;6.00;99.90;;;;;;20725693;28;20041;-79
2021/11/22 14:44:27;;;;;;;3.08;2.08;;;6.10;99.90;;;;;;20726852;28;20412;-79
2021/11/22 14:54:31;;;;;;;3.60;2.53;;;6.10;99.90;;;;;;20726591;28;20034;-79
2021/11/22 15:04:44;;;;;;;4.47;2.45;;;6.10;99.90;;;;;;20725616;28;20115;-78
2021/11/22 15:14:56;;;;;;;4.15;2.97;;;6.20;99.90;;;;;;20724722;28;20033;-78
2021/11/22 15:24:58;;;;;;;4.45;2.85;;;6.10;99.90;;;;;;20716107;28;20049;-78
2021/11/22 15:34:59;;;;;;;;;;;6.20;99.90;;;;;;20717212;28;20049;-77
2021/11/22 15:45:00;;;;;;;6.63;3.63;;;6.20;99.90;;;;;;20712097;28;19923;-77
2021/11/22 15:55:01;;;;;;;6.80;3.50;;;6.10;99.90;;;;;;20713713;28;20034;-78
2021/11/22 16:05:03;;;;;;;4.83;3.40;;;6.10;99.90;;;;;;20727098;28;20667;-79
2021/11/22 16:15:07;;;;;;;5.20;3.42;;;6.10;99.90;;;;;;20743220;28;20033;-79
2021/11/22 16:25:08;;;;;;;5.53;3.70;;;6.00;99.90;;;;;;20734072;28;20034;-79
2021/11/22 16:35:09;;;;;;;10.97;6.63;;;6.00;99.90;;;;;;20729691;28;20037;-78
2021/11/22 16:45:10;;;;;;;9.30;5.27;;;6.00;99.90;;;;;;20731237;28;20026;-78
2021/11/22 16:55:13;;;;;;;9.13;4.87;;;6.00;99.90;;;;;;20733524;28;20284;-79
2021/11/22 17:05:14;;;;;;;8.65;5.50;;;6.00;99.90;;;;;;20728830;28;20296;-78
2021/11/22 17:15:15;;;;;;;6.63;4.38;;;6.00;99.90;;;;;;20742278;23;20041;-76
2021/11/22 17:25:16;;;;;;;7.97;4.43;;;6.10;99.90;;;;;;20711602;28;20065;-76
2021/11/22 17:35:17;;;;;;;8.32;4.25;;;6.10;99.90;;;;;;20712744;28;20280;-76
2021/11/22 17:45:22;;;;;;;5.00;3.53;;;6.30;99.90;;;;;;20730872;28;20050;-76
2021/11/22 17:55:23;;;;;;;5.63;3.75;;;6.30;99.90;;;;;;20787808;28;20030;-75
2021/11/22 18:05:24;;;;;;;5.87;3.43;;;6.30;99.90;;;;;;20783262;28;20060;-76
2021/11/22 18:15:25;;;;;;;5.95;3.67;;;6.30;99.90;;;;;;20798616;28;20042;-76
2021/11/22 18:25:26;;;;;;;5.60;3.50;;;6.30;99.90;;;;;;20821817;28;20408;-77
2021/11/22 18:35:27;;;;;;;3.60;2.70;;;6.40;99.90;;;;;;20817822;28;20041;-77
2021/11/22 18:45:28;;;;;;;4.03;2.38;;;6.40;99.90;;;;;;20786400;28;20037;-79
2021/11/22 18:55:29;;;;;;;4.63;2.83;;;6.30;99.90;;;;;;20771092;28;20124;-77
2021/11/22 19:05:30;;;;;;;;;;;6.40;99.90;;;;;;20794719;28;20034;-78
2021/11/22 19:15:31;;;;;;;8.98;4.43;;;6.30;99.90;;;;;;20797684;28;20443;-78
2021/11/22 19:25:33;;;;;;;8.17;4.63;;;6.30;99.90;;;;;;20783139;28;20025;-77
2021/11/22 19:35:34;;;;;;;5.95;3.90;;;6.20;99.90;;;;;;20785012;28;20271;-78
2021/11/22 19:45:36;;;;;;;8.37;4.77;;;6.20;99.90;;;;;;20797902;28;20030;-78
2021/11/22 19:55:37;;;;;;;8.52;4.88;;;6.20;99.90;;;;;;20795012;28;20034;-77
2021/11/22 20:05:38;;;;;;;9.23;4.57;;;6.30;99.90;;;;;;20790145;28;20546;-76
2021/11/22 20:15:39;;;;;;;12.50;5.57;;;6.30;99.90;;;;;;20789511;28;20025;-76
2021/11/22 20:25:40;;;;;;;7.57;4.97;;;6.30;99.90;;;;;;20792047;28;20061;-74
2021/11/22 20:35:41;;;;;;;;;;;6.30;99.90;;;;;;20809601;28;20033;-77
2021/11/22 20:45:42;;;;;;;8.75;4.90;;;6.30;99.90;;;;;;20786045;28;19917;-75
2021/11/22 20:55:43;;;;;;;8.00;4.93;;;6.20;99.90;;;;;;20785946;28;20022;-75
2021/11/22 21:05:45;;;;;;;8.97;4.77;;;6.20;99.90;;;;;;20794105;28;20040;-74
2021/11/22 21:15:46;;;;;;;7.93;4.50;;;6.20;99.90;;;;;;20779499;28;20359;-75
2021/11/22 21:25:47;;;;;;;8.63;3.60;;;6.10;99.90;;;;;;20780676;28;20053;-75
2021/11/22 21:35:48;;;;;;;;;;;6.10;99.90;;;;;;20775265;28;20048;-75
2021/11/22 21:45:49;;;;;;;7.40;4.07;;;6.00;99.90;;;;;;20750963;28;19953;-74
2021/11/22 21:55:50;;;;;;;8.97;4.40;;;5.90;99.90;;;;;;20747157;28;20284;-75
2021/11/22 22:05:51;;;;;;;7.00;4.28;;;5.90;99.90;;;;;;20744746;28;20518;-75
2021/11/22 22:15:52;;;;;;;7.68;4.40;;;5.90;99.90;;;;;;20744277;28;20041;-74
2021/11/22 22:25:53;;;;;;;5.80;3.93;;;5.80;99.90;;;;;;20744507;28;20026;-75
2021/11/22 22:35:54;;;;;;;6.85;3.70;;;5.80;99.90;;;;;;20744306;28;20759;-73
2021/11/22 22:45:56;;;;;;;4.80;3.47;;;5.70;99.90;;;;;;20741989;28;20112;-75
2021/11/22 22:55:57;;;;;;;4.72;3.40;;;5.70;99.90;;;;;;20743302;28;20456;-77
2021/11/22 23:06:01;;;;;;;6.03;3.20;;;5.70;99.90;;;;;;20742954;28;20066;-77
2021/11/22 23:16:04;;;;;;;5.40;3.78;;;5.60;99.90;;;;;;20753442;28;20038;-77
2021/11/22 23:26:06;;;;;;;6.15;3.95;;;5.60;99.90;;;;;;20758672;28;20037;-77
2021/11/22 23:36:08;;;;;;;6.38;3.80;;;5.50;99.90;;;;;;20757929;28;20061;-77
2021/11/22 23:46:09;;;;;;;7.57;4.40;;;5.50;99.90;;;;;;20757007;28;20416;-76
2021/11/22 23:56:11;;;;;;;5.72;3.80;;;5.50;99.90;;;;;;20756612;28;20113;-77
